createdAt,value
2023-03-17T00:01:54.717Z,65.30
2023-03-17T00:04:24.381Z,65.34
2023-03-17T00:06:53.072Z,65.43
2023-03-17T00:09:22.516Z,65.44
2023-03-17T00:11:50.463Z,65.38
2023-03-17T00:14:18.157Z,65.37
2023-03-17T00:16:50.136Z,65.45
2023-03-17T00:19:22.848Z,65.54
2023-03-17T00:21:50.154Z,65.46
2023-03-17T00:24:17.358Z,65.37
2023-03-17T00:26:44.612Z,65.30
2023-03-17T00:29:12.139Z,65.42
2023-03-17T00:31:39.766Z,65.43
2023-03-17T00:34:08.171Z,65.45
2023-03-17T00:36:36.085Z,65.55
2023-03-17T00:39:06.097Z,65.64
2023-03-17T00:41:33.191Z,65.60
2023-03-17T00:44:00.216Z,65.69
2023-03-17T00:46:35.656Z,65.62
2023-03-17T00:49:09.771Z,65.74
2023-03-17T00:51:36.795Z,65.58
2023-03-17T00:54:04.152Z,65.61
2023-03-17T00:56:31.585Z,65.66
2023-03-17T00:58:58.709Z,65.53
2023-03-17T01:01:25.809Z,65.62
2023-03-17T01:03:52.938Z,65.71
2023-03-17T01:06:20.325Z,65.75
2023-03-17T01:08:48.178Z,65.75
2023-03-17T01:11:19.006Z,65.77
2023-03-17T01:13:47.853Z,65.83
2023-03-17T01:16:15.842Z,65.79
2023-03-17T01:18:43.730Z,65.84
2023-03-17T01:21:11.079Z,65.86
2023-03-17T01:23:38.330Z,65.80
2023-03-17T01:26:06.684Z,65.91
2023-03-17T01:28:34.211Z,65.86
2023-03-17T01:31:02.879Z,65.82
2023-03-17T01:33:30.167Z,65.81
2023-03-17T01:35:57.647Z,65.77
2023-03-17T01:38:25.826Z,65.73
2023-03-17T01:40:53.785Z,65.72
2023-03-17T01:43:29.599Z,65.78
2023-03-17T01:46:20.990Z,65.80
2023-03-17T01:49:03.787Z,65.95
2023-03-17T01:51:36.800Z,65.97
2023-03-17T01:54:08.931Z,66.03
2023-03-17T01:56:38.087Z,65.92
2023-03-17T01:59:10.167Z,66.03
2023-03-17T02:01:41.286Z,65.99
2023-03-17T02:04:09.230Z,65.92
2023-03-17T02:06:42.114Z,65.85
2023-03-17T02:09:14.771Z,65.80
2023-03-17T02:11:45.661Z,65.80
2023-03-17T02:14:12.816Z,65.97
2023-03-17T02:16:41.124Z,65.86
2023-03-17T02:19:09.272Z,65.95
2023-03-17T02:21:54.687Z,65.78
2023-03-17T02:24:31.028Z,66.04
2023-03-17T02:27:03.951Z,65.93
2023-03-17T02:29:35.065Z,65.90
2023-03-17T02:32:02.834Z,66.01
2023-03-17T02:34:30.232Z,66.07
2023-03-17T02:36:58.656Z,65.96
2023-03-17T02:39:26.132Z,66.15
2023-03-17T02:41:53.360Z,66.07
2023-03-17T02:44:20.501Z,66.07
2023-03-17T02:46:47.763Z,65.99
2023-03-17T02:49:15.803Z,66.00
2023-03-17T02:51:42.853Z,65.91
2023-03-17T02:54:09.948Z,66.03
2023-03-17T02:56:37.998Z,65.98
2023-03-17T02:59:06.305Z,66.10
2023-03-17T03:01:34.133Z,66.15
2023-03-17T03:04:01.459Z,66.13
2023-03-17T03:06:28.561Z,66.12
2023-03-17T03:08:55.673Z,66.21
2023-03-17T03:11:23.326Z,66.24
2023-03-17T03:13:50.515Z,66.28
2023-03-17T03:16:17.686Z,66.13
2023-03-17T03:18:44.838Z,66.14
2023-03-17T03:21:11.936Z,66.10
2023-03-17T03:23:39.086Z,66.13
2023-03-17T03:26:06.188Z,66.18
2023-03-17T03:28:33.529Z,66.18
2023-03-17T03:31:00.831Z,66.17
2023-03-17T03:33:28.586Z,66.16
2023-03-17T03:35:55.759Z,66.25
2023-03-17T03:38:23.222Z,66.23
2023-03-17T03:40:50.309Z,66.34
2023-03-17T03:43:23.240Z,66.42
2023-03-17T03:45:51.815Z,66.34
2023-03-17T03:48:19.315Z,66.46
2023-03-17T03:50:46.702Z,66.41
2023-03-17T03:53:14.514Z,66.33
2023-03-17T03:55:42.061Z,66.29
2023-03-17T03:58:09.140Z,66.39
2023-03-17T04:00:37.345Z,66.42
2023-03-17T04:03:04.520Z,66.48
2023-03-17T04:05:31.905Z,66.38
2023-03-17T04:07:59.098Z,66.35
2023-03-17T04:10:26.565Z,66.37
2023-03-17T04:12:53.766Z,66.47
2023-03-17T04:15:21.234Z,66.60
2023-03-17T04:17:48.301Z,66.52
2023-03-17T04:20:17.120Z,66.53
2023-03-17T04:22:44.344Z,66.51
2023-03-17T04:25:14.403Z,66.55
2023-03-17T04:27:42.992Z,66.51
2023-03-17T04:30:13.934Z,66.49
2023-03-17T04:32:41.939Z,66.56
2023-03-17T04:35:14.047Z,66.56
2023-03-17T04:37:41.169Z,66.50
2023-03-17T04:40:10.082Z,66.58
2023-03-17T04:42:37.916Z,66.53
2023-03-17T04:45:06.503Z,66.56
2023-03-17T04:47:33.997Z,66.62
2023-03-17T04:50:01.656Z,66.67
2023-03-17T04:52:28.799Z,66.67
2023-03-17T04:54:56.014Z,66.72
2023-03-17T04:57:24.631Z,66.72
2023-03-17T04:59:51.927Z,66.79
2023-03-17T05:02:19.336Z,66.70
2023-03-17T05:04:46.817Z,66.55
2023-03-17T05:07:14.271Z,66.57
2023-03-17T05:09:42.070Z,66.79
2023-03-17T05:12:10.037Z,66.59
2023-03-17T05:14:37.548Z,66.68
2023-03-17T05:17:04.896Z,66.71
2023-03-17T05:19:31.978Z,66.72
2023-03-17T05:21:59.430Z,66.69
2023-03-17T05:24:27.165Z,66.74
2023-03-17T05:26:54.330Z,66.73
2023-03-17T05:29:21.724Z,66.85
2023-03-17T05:31:48.863Z,66.77
2023-03-17T05:34:16.131Z,66.81
2023-03-17T05:36:43.761Z,66.85
2023-03-17T05:39:13.402Z,66.87
2023-03-17T05:41:41.626Z,66.82
2023-03-17T05:44:09.345Z,66.91
2023-03-17T05:46:36.622Z,66.93
2023-03-17T05:49:03.935Z,66.80
2023-03-17T05:51:30.975Z,66.92
2023-03-17T05:53:58.490Z,66.87
2023-03-17T05:56:27.421Z,66.94
2023-03-17T05:58:54.490Z,66.85
2023-03-17T06:01:21.893Z,66.82
2023-03-17T06:03:50.151Z,66.85
2023-03-17T06:06:17.360Z,66.82
2023-03-17T06:08:45.093Z,66.84
2023-03-17T06:11:12.208Z,66.87
2023-03-17T06:13:39.327Z,66.95
2023-03-17T06:16:07.123Z,66.94
2023-03-17T06:18:34.346Z,67.04
2023-03-17T06:21:02.002Z,67.04
2023-03-17T06:23:29.076Z,67.04
2023-03-17T06:25:56.477Z,66.99
2023-03-17T06:28:24.230Z,67.02
2023-03-17T06:30:51.364Z,67.11
2023-03-17T06:33:19.334Z,67.05
2023-03-17T06:35:46.913Z,67.08
2023-03-17T06:38:14.179Z,67.06
2023-03-17T06:40:41.842Z,66.96
2023-03-17T06:43:09.119Z,66.97
2023-03-17T06:45:36.218Z,67.11
2023-03-17T06:48:03.752Z,67.08
2023-03-17T06:50:30.988Z,67.06
2023-03-17T06:52:58.153Z,67.10
2023-03-17T06:55:25.265Z,67.08
2023-03-17T06:57:52.638Z,67.17
2023-03-17T07:00:20.192Z,67.21
2023-03-17T07:02:47.548Z,67.26
2023-03-17T07:05:14.872Z,67.20
2023-03-17T07:07:41.964Z,67.20
2023-03-17T07:10:13.851Z,67.24
2023-03-17T07:12:41.451Z,67.18
2023-03-17T07:15:09.435Z,67.23
2023-03-17T07:17:36.607Z,67.25
2023-03-17T07:20:04.039Z,67.28
2023-03-17T07:22:31.147Z,67.37
2023-03-17T07:24:58.313Z,67.42
2023-03-17T07:27:26.546Z,67.38
2023-03-17T07:29:53.972Z,67.39
2023-03-17T07:32:21.099Z,67.40
2023-03-17T07:34:48.550Z,67.15
2023-03-17T07:37:15.804Z,67.23
2023-03-17T07:39:43.772Z,67.22
2023-03-17T07:42:15.441Z,67.20
2023-03-17T07:44:42.759Z,67.22
2023-03-17T07:47:11.520Z,67.19
2023-03-17T07:49:42.068Z,67.35
2023-03-17T07:52:11.627Z,67.24
2023-03-17T07:54:41.551Z,67.33
2023-03-17T07:57:10.227Z,67.44
2023-03-17T07:59:38.381Z,67.42
2023-03-17T08:02:05.877Z,67.43
2023-03-17T08:04:33.118Z,67.48
2023-03-17T08:07:00.535Z,67.44
2023-03-17T08:09:27.672Z,67.55
2023-03-17T08:11:54.775Z,67.53
2023-03-17T08:14:22.011Z,67.45
2023-03-17T08:16:49.325Z,67.45
2023-03-17T08:19:16.657Z,67.50
2023-03-17T08:21:43.858Z,67.55
2023-03-17T08:24:11.156Z,67.51
2023-03-17T08:26:38.418Z,67.45
2023-03-17T08:29:05.752Z,67.45
2023-03-17T08:31:34.105Z,67.42
2023-03-17T08:34:02.824Z,67.44
2023-03-17T08:36:30.024Z,67.41
2023-03-17T08:38:57.172Z,67.46
2023-03-17T08:41:27.056Z,67.32
2023-03-17T08:43:54.999Z,67.23
2023-03-17T08:46:25.481Z,67.13
2023-03-17T08:48:54.297Z,67.31
2023-03-17T08:51:24.582Z,67.51
2023-03-17T08:53:53.529Z,67.50
2023-03-17T08:56:21.305Z,67.54
2023-03-17T08:58:49.073Z,67.27
2023-03-17T09:01:17.388Z,67.14
2023-03-17T09:03:45.734Z,67.03
2023-03-17T09:06:13.877Z,67.01
2023-03-17T09:08:45.067Z,66.96
2023-03-17T09:11:16.749Z,67.03
2023-03-17T09:13:46.691Z,67.32
2023-03-17T09:16:15.004Z,67.36
2023-03-17T09:18:42.522Z,67.32
2023-03-17T09:21:12.294Z,67.28
2023-03-17T09:23:39.892Z,67.22
2023-03-17T09:26:07.405Z,66.86
2023-03-17T09:28:34.619Z,66.77
2023-03-17T09:31:05.357Z,66.71
2023-03-17T09:33:32.604Z,66.70
2023-03-17T09:35:59.735Z,66.53
2023-03-17T09:38:28.654Z,66.42
2023-03-17T09:41:20.786Z,66.38
2023-03-17T09:44:04.573Z,66.47
2023-03-17T09:46:56.175Z,66.48
2023-03-17T09:49:48.559Z,66.50
2023-03-17T09:52:18.839Z,66.47
2023-03-17T09:54:49.722Z,66.29
2023-03-17T09:57:22.689Z,66.44
2023-03-17T09:59:55.265Z,66.48
2023-03-17T10:02:27.828Z,66.46
2023-03-17T10:04:55.242Z,66.56
2023-03-17T10:07:58.111Z,66.34
2023-03-17T10:10:42.650Z,66.07
2023-03-17T10:13:14.181Z,66.21
2023-03-17T10:15:50.643Z,66.32
2023-03-17T10:18:22.042Z,66.20
2023-03-17T10:20:54.659Z,66.08
2023-03-17T10:23:27.841Z,66.32
2023-03-17T10:25:59.931Z,66.20
2023-03-17T10:28:32.706Z,66.16
2023-03-17T10:31:14.065Z,66.34
2023-03-17T10:33:41.223Z,66.47
2023-03-17T10:36:10.741Z,66.31
2023-03-17T10:38:37.959Z,66.42
2023-03-17T10:41:13.598Z,66.38
2023-03-17T10:43:48.741Z,66.31
2023-03-17T10:46:24.534Z,66.36
2023-03-17T10:48:58.377Z,66.24
2023-03-17T10:51:32.164Z,66.09
2023-03-17T10:54:09.818Z,65.85
2023-03-17T10:56:39.985Z,65.87
2023-03-17T10:59:15.269Z,66.04
2023-03-17T11:01:49.902Z,65.82
2023-03-17T11:04:38.469Z,65.84
2023-03-17T11:07:12.612Z,65.72
2023-03-17T11:09:39.790Z,65.83
2023-03-17T11:12:23.020Z,65.57
2023-03-17T11:14:50.272Z,65.71
2023-03-17T11:17:45.609Z,65.79
2023-03-17T11:20:42.287Z,65.56
2023-03-17T11:23:28.167Z,65.42
2023-03-17T11:26:17.683Z,65.46
2023-03-17T11:28:51.755Z,65.38
2023-03-17T11:31:34.305Z,65.34
2023-03-17T11:34:30.782Z,65.16
2023-03-17T11:37:07.056Z,65.27
2023-03-17T11:40:19.600Z,65.18
2023-03-17T11:43:11.551Z,65.00
2023-03-17T11:45:45.444Z,65.02
2023-03-17T11:48:21.460Z,65.04
2023-03-17T11:51:14.309Z,65.24
2023-03-17T11:53:59.640Z,65.06
2023-03-17T11:56:32.859Z,65.19
2023-03-17T11:59:05.150Z,65.10
2023-03-17T12:01:54.946Z,65.05
2023-03-17T12:04:37.974Z,65.08
2023-03-17T12:07:29.116Z,64.94
2023-03-17T12:10:15.734Z,64.65
2023-03-17T12:12:50.834Z,64.54
2023-03-17T12:15:34.823Z,64.56
2023-03-17T12:18:26.604Z,64.52
2023-03-17T12:20:57.538Z,64.55
2023-03-17T12:23:39.876Z,64.69
2023-03-17T12:26:16.517Z,64.69
2023-03-17T12:28:57.392Z,64.39
2023-03-17T12:31:33.467Z,64.60
2023-03-17T12:34:24.236Z,64.71
2023-03-17T12:36:52.347Z,64.63
2023-03-17T12:39:29.013Z,64.46
2023-03-17T12:42:02.304Z,64.41
2023-03-17T12:44:47.577Z,64.47
2023-03-17T12:47:33.434Z,64.59
2023-03-17T12:50:10.764Z,64.59
2023-03-17T12:53:09.447Z,64.26
2023-03-17T12:55:37.051Z,64.25
2023-03-17T12:58:15.088Z,64.24
2023-03-17T13:00:56.367Z,63.97
2023-03-17T13:03:23.874Z,63.73
2023-03-17T13:05:55.269Z,63.97
2023-03-17T13:08:28.277Z,63.83
2023-03-17T13:11:19.768Z,63.68
2023-03-17T13:13:50.101Z,63.88
2023-03-17T13:16:39.506Z,63.82
2023-03-17T13:19:17.543Z,63.72
2023-03-17T13:21:50.645Z,63.50
2023-03-17T13:24:18.660Z,63.62
2023-03-17T13:27:04.710Z,63.30
2023-03-17T13:29:32.360Z,63.59
2023-03-17T13:32:31.995Z,63.28
2023-03-17T13:35:02.355Z,63.24
2023-03-17T13:37:35.819Z,63.17
2023-03-17T13:40:45.801Z,63.20
2023-03-17T13:43:37.274Z,63.14
2023-03-17T13:46:39.879Z,62.91
2023-03-17T13:49:26.951Z,62.75
2023-03-17T13:52:16.302Z,62.86
2023-03-17T13:54:58.881Z,62.58
2023-03-17T13:57:29.234Z,62.68
2023-03-17T14:00:29.236Z,62.78
2023-03-17T14:03:30.325Z,62.59
2023-03-17T14:06:01.373Z,62.64
2023-03-17T14:08:46.507Z,62.62
2023-03-17T14:11:38.420Z,62.48
2023-03-17T14:14:31.161Z,62.30
2023-03-17T14:17:07.178Z,62.31
2023-03-17T14:19:34.857Z,62.45
2023-03-17T14:22:04.696Z,62.49
2023-03-17T14:24:33.936Z,62.27
2023-03-17T14:27:08.095Z,62.17
2023-03-17T14:29:37.318Z,62.13
2023-03-17T14:32:07.430Z,61.99
2023-03-17T14:34:34.591Z,61.99
2023-03-17T14:37:03.666Z,62.05
2023-03-17T14:39:30.812Z,62.04
2023-03-17T14:42:03.054Z,61.79
2023-03-17T14:44:40.864Z,61.92
2023-03-17T14:47:20.013Z,61.86
2023-03-17T14:49:48.288Z,61.72
2023-03-17T14:52:19.477Z,61.81
2023-03-17T14:54:51.556Z,61.60
2023-03-17T14:57:23.007Z,61.53
2023-03-17T15:00:01.908Z,61.35
2023-03-17T15:02:37.961Z,61.29
2023-03-17T15:05:17.482Z,61.37
2023-03-17T15:07:44.609Z,61.20
2023-03-17T15:10:18.129Z,61.27
2023-03-17T15:12:46.792Z,61.15
2023-03-17T15:15:27.235Z,61.22
2023-03-17T15:17:56.933Z,61.10
2023-03-17T15:20:25.090Z,61.02
2023-03-17T15:22:58.361Z,61.07
2023-03-17T15:25:46.648Z,61.16
2023-03-17T15:28:16.778Z,60.94
2023-03-17T15:30:48.065Z,60.97
2023-03-17T15:33:29.539Z,60.99
2023-03-17T15:36:00.132Z,60.94
2023-03-17T15:38:27.764Z,60.77
2023-03-17T15:40:55.418Z,60.83
2023-03-17T15:43:22.823Z,60.64
2023-03-17T15:46:07.719Z,60.53
2023-03-17T15:48:36.810Z,60.61
2023-03-17T15:51:06.061Z,60.64
2023-03-17T15:53:33.311Z,60.54
2023-03-17T15:56:00.487Z,60.67
2023-03-17T15:58:27.714Z,60.69
2023-03-17T16:00:57.559Z,60.54
2023-03-17T16:03:29.700Z,60.67
2023-03-17T16:05:57.859Z,60.64
2023-03-17T16:08:25.118Z,60.46
2023-03-17T16:10:52.377Z,60.56
2023-03-17T16:13:19.852Z,60.55
2023-03-17T16:15:56.459Z,60.35
2023-03-17T16:18:36.972Z,60.37
2023-03-17T16:21:05.384Z,60.50
2023-03-17T16:23:36.898Z,60.42
2023-03-17T16:26:14.932Z,60.30
2023-03-17T16:28:45.038Z,60.31
2023-03-17T16:31:19.130Z,60.14
2023-03-17T16:33:46.414Z,60.29
2023-03-17T16:36:18.618Z,60.14
2023-03-17T16:38:46.587Z,60.07
2023-03-17T16:41:17.242Z,60.06
2023-03-17T16:43:46.854Z,60.23
2023-03-17T16:46:14.135Z,60.04
2023-03-17T16:48:41.305Z,60.03
2023-03-17T16:51:08.326Z,60.07
2023-03-17T16:53:36.090Z,60.01
2023-03-17T16:56:03.714Z,59.95
2023-03-17T16:58:34.546Z,59.84
2023-03-17T17:01:04.429Z,59.87
2023-03-17T17:03:31.920Z,59.85
2023-03-17T17:05:59.120Z,59.83
2023-03-17T17:08:26.270Z,59.69
2023-03-17T17:10:53.404Z,59.85
2023-03-17T17:13:20.666Z,59.75
2023-03-17T17:15:47.873Z,59.76
2023-03-17T17:18:18.299Z,59.86
2023-03-17T17:20:46.332Z,59.82
2023-03-17T17:23:16.404Z,59.72
2023-03-17T17:25:44.049Z,59.66
2023-03-17T17:28:13.061Z,59.59
2023-03-17T17:30:45.036Z,59.54
2023-03-17T17:33:12.716Z,59.63
2023-03-17T17:35:41.312Z,59.65
2023-03-17T17:38:17.752Z,59.46
2023-03-17T17:40:44.887Z,59.44
2023-03-17T17:43:12.009Z,59.68
2023-03-17T17:45:39.280Z,59.42
2023-03-17T17:48:06.355Z,59.37
2023-03-17T17:50:34.057Z,59.43
2023-03-17T17:53:05.705Z,59.42
2023-03-17T17:55:34.000Z,59.40
2023-03-17T17:58:01.249Z,59.33
2023-03-17T18:00:29.009Z,59.29
2023-03-17T18:02:56.733Z,59.30
2023-03-17T18:05:25.034Z,59.34
2023-03-17T18:07:52.108Z,59.29
2023-03-17T18:10:22.639Z,59.16
2023-03-17T18:12:49.924Z,59.19
2023-03-17T18:15:17.142Z,59.13
2023-03-17T18:17:44.259Z,59.13
2023-03-17T18:20:13.847Z,59.03
2023-03-17T18:22:41.053Z,59.03
2023-03-17T18:25:10.437Z,59.09
2023-03-17T18:27:38.547Z,59.10
2023-03-17T18:30:07.688Z,59.04
2023-03-17T18:32:35.550Z,59.04
2023-03-17T18:35:08.908Z,59.00
2023-03-17T18:37:37.176Z,58.89
2023-03-17T18:40:14.256Z,59.02
2023-03-17T18:42:41.731Z,58.87
2023-03-17T18:45:10.431Z,58.85
2023-03-17T18:47:39.115Z,58.76
2023-03-17T18:50:08.145Z,58.82
2023-03-17T18:52:37.504Z,58.77
2023-03-17T18:55:05.309Z,58.80
2023-03-17T18:57:32.445Z,58.71
2023-03-17T18:59:59.559Z,58.66
2023-03-17T19:02:26.800Z,58.63
2023-03-17T19:04:53.997Z,58.60
2023-03-17T19:07:22.447Z,58.55
2023-03-17T19:09:49.708Z,58.79
2023-03-17T19:12:16.834Z,58.79
2023-03-17T19:14:44.021Z,58.69
2023-03-17T19:17:11.235Z,58.60
2023-03-17T19:19:38.741Z,58.50
2023-03-17T19:22:06.377Z,58.66
2023-03-17T19:24:37.777Z,58.65
2023-03-17T19:27:05.720Z,58.57
2023-03-17T19:29:33.518Z,58.39
2023-03-17T19:32:00.824Z,58.52
2023-03-17T19:34:28.225Z,58.56
2023-03-17T19:36:55.765Z,58.53
2023-03-17T19:39:23.426Z,58.44
2023-03-17T19:41:55.046Z,58.46
2023-03-17T19:44:22.493Z,58.47
2023-03-17T19:46:49.689Z,58.30
2023-03-17T19:49:17.798Z,58.34
2023-03-17T19:51:44.862Z,58.36
2023-03-17T19:54:12.004Z,58.22
2023-03-17T19:56:39.188Z,58.34
2023-03-17T19:59:07.514Z,58.38
2023-03-17T20:01:37.905Z,58.44
2023-03-17T20:04:07.174Z,58.37
2023-03-17T20:06:34.819Z,58.24
2023-03-17T20:09:08.817Z,58.29
2023-03-17T20:11:36.309Z,58.34
2023-03-17T20:14:03.473Z,58.28
2023-03-17T20:16:33.699Z,58.42
2023-03-17T20:19:01.594Z,58.31
2023-03-17T20:21:28.849Z,58.21
2023-03-17T20:23:56.975Z,58.24
2023-03-17T20:26:24.682Z,58.24
2023-03-17T20:28:51.804Z,58.25
2023-03-17T20:31:19.523Z,58.32
2023-03-17T20:33:46.727Z,58.22
2023-03-17T20:36:14.182Z,58.23
2023-03-17T20:38:43.811Z,58.17
2023-03-17T20:41:14.444Z,58.07
2023-03-17T20:43:41.996Z,58.14
2023-03-17T20:46:23.927Z,58.26
2023-03-17T20:48:58.917Z,58.14
2023-03-17T20:51:27.019Z,58.00
2023-03-17T20:53:55.252Z,58.08
2023-03-17T20:56:23.667Z,58.08
2023-03-17T20:58:53.343Z,57.97
2023-03-17T21:01:21.551Z,58.17
2023-03-17T21:03:50.159Z,58.05
2023-03-17T21:06:18.410Z,58.00
2023-03-17T21:08:46.313Z,58.04
2023-03-17T21:11:17.447Z,57.99
2023-03-17T21:13:44.819Z,57.90
2023-03-17T21:16:18.209Z,57.96
2023-03-17T21:18:45.620Z,58.02
2023-03-17T21:21:12.888Z,57.97
2023-03-17T21:23:41.354Z,57.95
2023-03-17T21:26:11.975Z,57.85
2023-03-17T21:28:41.528Z,57.89
2023-03-17T21:31:09.684Z,57.87
2023-03-17T21:33:37.241Z,57.84
2023-03-17T21:36:04.982Z,57.83
2023-03-17T21:38:32.769Z,57.85
2023-03-17T21:41:21.537Z,57.77
2023-03-17T21:43:48.862Z,57.74
2023-03-17T21:46:16.102Z,57.79
2023-03-17T21:48:44.192Z,57.78
2023-03-17T21:51:11.543Z,57.73
2023-03-17T21:53:38.871Z,57.67
2023-03-17T21:56:06.497Z,57.83
2023-03-17T21:58:33.610Z,57.71
2023-03-17T22:01:01.559Z,57.83
2023-03-17T22:03:29.151Z,57.68
2023-03-17T22:05:56.763Z,57.66
2023-03-17T22:08:23.824Z,57.66
2023-03-17T22:10:52.200Z,57.66
2023-03-17T22:13:19.360Z,57.72
2023-03-17T22:15:46.455Z,57.52
2023-03-17T22:18:13.593Z,57.53
2023-03-17T22:20:40.682Z,57.68
2023-03-17T22:23:07.859Z,57.52
2023-03-17T22:25:35.000Z,57.43
2023-03-17T22:28:02.129Z,57.47
2023-03-17T22:30:29.234Z,57.49
2023-03-17T22:32:56.693Z,57.56
2023-03-17T22:35:25.151Z,57.42
2023-03-17T22:37:52.282Z,57.52
2023-03-17T22:40:19.548Z,57.52
2023-03-17T22:42:47.111Z,57.59
2023-03-17T22:45:14.694Z,57.63
2023-03-17T22:47:41.844Z,57.45
2023-03-17T22:50:09.651Z,57.51
2023-03-17T22:52:37.315Z,57.39
2023-03-17T22:55:04.883Z,57.41
2023-03-17T22:57:32.090Z,57.34
2023-03-17T22:59:59.363Z,57.49
2023-03-17T23:02:26.671Z,57.40
2023-03-17T23:04:53.770Z,57.34
2023-03-17T23:07:20.844Z,57.45
2023-03-17T23:09:48.043Z,57.43
2023-03-17T23:12:15.221Z,57.42
2023-03-17T23:14:42.319Z,57.58
2023-03-17T23:17:09.519Z,57.49
2023-03-17T23:19:36.740Z,57.48
2023-03-17T23:22:03.950Z,57.37
2023-03-17T23:24:30.925Z,57.35
2023-03-17T23:26:58.005Z,57.32
2023-03-17T23:29:25.176Z,57.35
2023-03-17T23:31:52.195Z,57.30
2023-03-17T23:34:19.227Z,57.32
2023-03-17T23:36:46.409Z,57.29
2023-03-17T23:39:13.492Z,57.30
2023-03-17T23:41:41.536Z,57.28
2023-03-17T23:44:10.248Z,57.38
2023-03-17T23:46:39.281Z,57.29
2023-03-17T23:49:07.492Z,57.39
2023-03-17T23:51:34.616Z,57.28
2023-03-17T23:54:01.870Z,57.21
2023-03-17T23:56:28.967Z,57.29
2023-03-17T23:58:56.076Z,57.35
